createdAt,value
2023-05-12T00:03:01.048Z,401.16995
2023-05-12T00:08:02.561Z,374.3265
2023-05-12T00:13:04.009Z,322.00275
2023-05-12T00:18:05.776Z,345.64605
2023-05-12T00:23:07.250Z,332.37245
2023-05-12T00:28:08.742Z,325.55795
2023-05-12T00:33:10.237Z,308.61045
2023-05-12T00:38:11.647Z,289.23345
2023-05-12T00:43:13.058Z,274.36
2023-05-12T00:48:14.462Z,254.27185
2023-05-12T00:53:15.852Z,221.91765
2023-05-12T00:58:17.385Z,205.7406
2023-05-12T01:03:18.933Z,186.8376
2023-05-12T01:08:20.452Z,174.2158
2023-05-12T01:13:21.821Z,162.66065
2023-05-12T01:18:23.368Z,153.23875
2023-05-12T01:23:24.879Z,146.6019
2023-05-12T01:28:26.341Z,141.32795
2023-05-12T01:33:27.772Z,135.40225
2023-05-12T01:38:29.259Z,129.7728
2023-05-12T01:43:30.653Z,79.81935
2023-05-12T01:48:32.047Z,75.2635
2023-05-12T01:53:33.502Z,73.419
2023-05-12T01:58:35.033Z,71.7038
2023-05-12T02:03:36.706Z,67.0564
2023-05-12T02:08:38.257Z,62.409
2023-05-12T02:13:39.703Z,59.7164
2023-05-12T02:18:41.159Z,55.86195
2023-05-12T02:23:42.675Z,50.84565
2023-05-12T02:28:44.118Z,46.0138
2023-05-12T02:33:45.672Z,42.9523
2023-05-12T02:38:47.144Z,38.72895
2023-05-12T02:43:48.752Z,30.9649
2023-05-12T02:48:50.175Z,24.3627
2023-05-12T02:53:51.552Z,18.55345
2023-05-12T02:58:53.171Z,20.74785
2023-05-12T03:03:54.658Z,12.06155
2023-05-12T03:08:56.076Z,9.1845
2023-05-12T03:13:57.480Z,8.4467
2023-05-12T03:18:58.932Z,4.59225
2023-05-12T03:24:00.377Z,1.83695
2023-05-12T03:29:01.801Z,1.2444
2023-05-12T03:34:03.246Z,1.3463
2023-05-12T03:39:04.638Z,0
2023-05-12T03:44:06.031Z,0
2023-05-12T03:49:07.448Z,0
2023-05-12T03:54:08.853Z,0
2023-05-12T03:59:10.275Z,0
2023-05-12T04:04:11.745Z,0
2023-05-12T04:09:13.266Z,0
2023-05-12T04:14:14.851Z,0
2023-05-12T04:19:16.226Z,0
2023-05-12T04:24:17.617Z,0
2023-05-12T04:29:19.005Z,0
2023-05-12T04:34:20.407Z,0
2023-05-12T04:39:21.837Z,0
2023-05-12T04:44:23.213Z,0
2023-05-12T04:49:24.601Z,0
2023-05-12T04:54:26.072Z,0
2023-05-12T04:59:27.464Z,0
2023-05-12T05:04:28.885Z,0
2023-05-12T05:09:30.297Z,0
2023-05-12T05:14:32.275Z,0
2023-05-12T05:19:43.902Z,0
2023-05-12T05:24:53.834Z,0
2023-05-12T05:29:55.255Z,0
2023-05-12T05:34:56.876Z,0
2023-05-12T05:39:58.351Z,0
2023-05-12T05:44:59.745Z,0
2023-05-12T05:50:01.315Z,0
2023-05-12T05:55:02.663Z,0
2023-05-12T06:00:04.048Z,0
2023-05-12T06:05:05.444Z,0
2023-05-12T06:10:06.913Z,0
2023-05-12T06:15:08.317Z,0
2023-05-12T06:20:09.719Z,0
2023-05-12T06:25:11.109Z,0
2023-05-12T06:30:14.946Z,0
2023-05-12T06:35:28.225Z,0
2023-05-12T06:40:29.606Z,0
2023-05-12T06:45:30.999Z,0
2023-05-12T06:50:43.338Z,0
2023-05-12T06:55:44.723Z,0
2023-05-12T07:00:46.132Z,0
2023-05-12T07:05:47.576Z,0
2023-05-12T07:10:48.983Z,0
2023-05-12T07:15:50.410Z,0
2023-05-12T07:20:51.860Z,0
2023-05-12T07:25:53.234Z,0
2023-05-12T07:30:54.668Z,0
2023-05-12T07:35:56.094Z,0
2023-05-12T07:40:58.123Z,0
2023-05-12T07:45:59.534Z,0
2023-05-12T07:51:01.268Z,0
2023-05-12T07:56:02.744Z,0
2023-05-12T08:01:04.322Z,0
2023-05-12T08:06:05.772Z,0
2023-05-12T08:11:07.167Z,0
2023-05-12T08:16:08.582Z,0
2023-05-12T08:21:09.997Z,0
2023-05-12T08:26:11.375Z,0
2023-05-12T08:31:12.891Z,0
2023-05-12T08:36:14.375Z,0
2023-05-12T08:41:15.770Z,0
2023-05-12T08:46:17.177Z,0
2023-05-12T08:51:18.541Z,0
2023-05-12T09:01:24.458Z,0
2023-05-12T09:06:25.910Z,0
2023-05-12T09:11:27.294Z,0
2023-05-12T09:16:28.761Z,0
2023-05-12T09:21:30.161Z,0
2023-05-12T09:26:31.566Z,0
2023-05-12T09:31:32.983Z,0
2023-05-12T09:36:34.513Z,0
2023-05-12T09:41:35.949Z,0
2023-05-12T09:46:37.353Z,0
2023-05-12T09:51:38.661Z,0
2023-05-12T09:56:40.002Z,0
2023-05-12T10:01:41.512Z,0
2023-05-12T10:06:42.909Z,0
2023-05-12T10:11:44.352Z,0
2023-05-12T10:16:45.834Z,0
2023-05-12T10:21:47.286Z,0
2023-05-12T10:26:48.687Z,0
2023-05-12T10:31:50.273Z,0
2023-05-12T10:36:51.781Z,0
2023-05-12T10:41:53.183Z,0
2023-05-12T10:46:54.591Z,0
2023-05-12T10:51:55.998Z,0
2023-05-12T10:56:57.567Z,0
2023-05-12T11:02:00.042Z,0
2023-05-12T11:07:02.964Z,0
2023-05-12T11:12:04.942Z,0
2023-05-12T11:17:06.370Z,0
2023-05-12T11:22:07.789Z,0
2023-05-12T11:27:09.163Z,0
2023-05-12T11:32:10.765Z,0
2023-05-12T11:37:12.183Z,0
2023-05-12T11:42:14.658Z,0
2023-05-12T11:47:17.228Z,0
2023-05-12T11:52:18.683Z,0.4148
2023-05-12T11:57:20.113Z,0.8296
2023-05-12T12:02:32.114Z,1.71845
2023-05-12T12:07:33.590Z,5.56965
2023-05-12T12:12:35.119Z,3.9702
2023-05-12T12:17:36.603Z,5.74795
2023-05-12T12:22:38.076Z,7.6442
2023-05-12T12:27:39.524Z,11.2686
2023-05-12T12:32:40.974Z,14.14565
2023-05-12T12:37:42.548Z,18.0001
2023-05-12T12:42:44.033Z,23.80935
2023-05-12T12:47:45.496Z,30.78045
2023-05-12T12:52:46.924Z,36.77415
2023-05-12T12:57:48.363Z,38.85825
2023-05-12T13:02:49.974Z,57.183
2023-05-12T13:07:51.514Z,79.10815
2023-05-12T13:12:52.965Z,76.38225
2023-05-12T13:17:54.626Z,87.34475
2023-05-12T13:22:56.041Z,97.35915
2023-05-12T13:27:57.426Z,104.94395
2023-05-12T13:32:58.892Z,118.69155
2023-05-12T13:38:00.359Z,129.3579
2023-05-12T13:43:01.912Z,129.8319
2023-05-12T13:48:03.336Z,131.43185
2023-05-12T13:53:04.781Z,142.86855
2023-05-12T13:58:06.171Z,153.00165
2023-05-12T14:03:07.640Z,160.3495
2023-05-12T14:08:09.176Z,181.80055
2023-05-12T14:13:10.581Z,191.99275
2023-05-12T14:18:12.895Z,184.23
2023-05-12T14:23:15.664Z,166.98605
2023-05-12T14:28:17.145Z,169.59325
2023-05-12T14:33:18.584Z,177.41515
2023-05-12T14:38:20.006Z,182.6297
2023-05-12T14:43:21.437Z,193.059
2023-05-12T14:48:22.853Z,199.933
2023-05-12T14:53:24.316Z,208.22915
2023-05-12T14:58:25.768Z,208.40705
2023-05-12T15:03:27.226Z,222.03615
2023-05-12T15:08:28.743Z,245.3833
2023-05-12T15:13:30.143Z,253.26435
2023-05-12T15:18:31.604Z,282.35945
2023-05-12T15:23:33.078Z,321.58735
2023-05-12T15:28:34.530Z,351.6304
2023-05-12T15:33:35.904Z,383.1551
2023-05-12T15:38:37.341Z,404.01355
2023-05-12T15:43:38.753Z,415.3316
2023-05-12T15:48:40.206Z,430.7384
2023-05-12T15:53:41.599Z,431.0346
2023-05-12T15:58:42.994Z,430.8567
2023-05-12T16:03:44.465Z,441.0489
2023-05-12T16:08:45.901Z,441.9377
2023-05-12T16:13:47.323Z,447.2708
2023-05-12T16:18:48.742Z,465.58145
2023-05-12T16:23:50.162Z,476.4848
2023-05-12T16:28:51.545Z,494.6177
2023-05-12T16:33:52.994Z,492.0103
2023-05-12T16:38:54.396Z,485.49175
2023-05-12T16:43:55.937Z,500.8395
2023-05-12T16:48:57.400Z,513.81695
2023-05-12T16:53:58.771Z,524.4834
2023-05-12T16:59:00.172Z,518.20195
2023-05-12T17:04:01.850Z,511.5652
2023-05-12T17:09:03.397Z,512.33545
2023-05-12T17:14:04.789Z,504.51345
2023-05-12T17:24:10.597Z,488.0991
2023-05-12T17:29:11.993Z,503.9211
2023-05-12T17:34:13.418Z,495.2695
2023-05-12T17:39:14.852Z,467.5961
2023-05-12T17:44:16.250Z,464.4554
2023-05-12T17:49:17.672Z,475.5367
2023-05-12T17:54:19.158Z,472.1591
2023-05-12T17:59:20.515Z,457.5816
2023-05-12T18:04:21.921Z,491.1809
2023-05-12T18:09:23.322Z,487.1514
2023-05-12T18:14:24.725Z,464.1002
2023-05-12T18:19:26.189Z,447.3895
2023-05-12T18:24:27.622Z,470.97415
2023-05-12T18:29:29.024Z,499.418
2023-05-12T18:34:30.459Z,505.9956
2023-05-12T18:39:31.842Z,517.4917
2023-05-12T18:44:33.237Z,530.94335
2023-05-12T18:49:34.615Z,554.76505
2023-05-12T18:54:36.007Z,550.02455
2023-05-12T18:59:37.419Z,549.96535
2023-05-12T19:04:38.850Z,542.38035
2023-05-12T19:09:40.455Z,525.0771
2023-05-12T19:14:41.912Z,502.91475
2023-05-12T19:19:43.317Z,457.9382
2023-05-12T19:24:44.723Z,410.6506
2023-05-12T19:29:46.168Z,379.1257
2023-05-12T19:34:47.565Z,357.67455
2023-05-12T19:39:48.984Z,350.86
2023-05-12T19:44:50.426Z,343.68985
2023-05-12T19:49:51.855Z,358.6228
2023-05-12T19:54:53.225Z,386.4739
2023-05-12T19:59:54.607Z,436.0134
2023-05-12T20:04:56.004Z,488.4565
2023-05-12T20:09:57.403Z,531.95155
2023-05-12T20:14:58.822Z,557.4321
2023-05-12T20:20:00.226Z,583.0906
2023-05-12T20:25:01.692Z,615.445
2023-05-12T20:30:03.169Z,651.5327
2023-05-12T20:35:04.958Z,669.4283
2023-05-12T20:40:06.346Z,684.89435
2023-05-12T20:45:07.762Z,701.3086
2023-05-12T20:50:09.162Z,710.37485
2023-05-12T20:55:10.617Z,715.1153
2023-05-12T21:00:11.981Z,722.2854
2023-05-12T21:05:13.389Z,722.9964
2023-05-12T21:10:14.848Z,726.78885
2023-05-12T21:15:16.277Z,723.4704
2023-05-12T21:20:17.678Z,724.9518
2023-05-12T21:25:19.112Z,722.6407
2023-05-12T21:30:20.766Z,719.7963
2023-05-12T21:35:22.327Z,719.9148
2023-05-12T21:40:23.759Z,715.23345
2023-05-12T21:45:25.154Z,707.35215
2023-05-12T21:50:26.569Z,701.1894
2023-05-12T21:55:28.058Z,692.5378
2023-05-12T22:00:29.504Z,688.38995
2023-05-12T22:05:30.936Z,677.54585
2023-05-12T22:10:32.365Z,670.0202
2023-05-12T22:15:33.873Z,661.7242
2023-05-12T22:20:35.285Z,648.095
2023-05-12T22:25:48.178Z,635.414
2023-05-12T22:30:49.605Z,624.3921
2023-05-12T22:35:51.032Z,614.5554
2023-05-12T22:40:52.434Z,601.10405
2023-05-12T22:45:53.849Z,590.971
2023-05-12T22:50:55.374Z,580.1269
2023-05-12T22:55:56.812Z,566.26065
2023-05-12T23:00:58.317Z,552.45375
2023-05-12T23:05:59.968Z,537.28395
2023-05-12T23:11:01.466Z,525.55095
2023-05-12T23:16:02.976Z,512.81065
2023-05-12T23:21:04.393Z,500.9592
2023-05-12T23:26:05.831Z,483.95235
2023-05-12T23:31:07.357Z,470.32315
2023-05-12T23:36:08.769Z,456.39775
2023-05-12T23:41:10.259Z,443.0649
2023-05-12T23:46:11.760Z,427.65805
2023-05-12T23:51:13.253Z,413.49555
2023-05-12T23:56:14.673Z,399.3331
